Sunday, January 21, 2018, 3:41 PM EST
Back to Local

KUKT, Quakertown, Quakertown Airport

Location: Quakertown, PA, United States Lat: 40.435
Local Time: 3:41 PM EST (20:41 GMT) Lon: -75.382
Time Zone: US/Eastern Elev: 524 ft

Show me the last for .
Show Coded

Time T Td Feel RH Dir Speed Gust Alt SLP Vis Weather Sky Remarks
2018-01-21 15:15 48 37 - 66 - - - 30.14 - 10 SCT024 OVC031 None
2018-01-21 14:55 48 37 - 66 - - - 30.14 - 10 OVC024 None
2018-01-21 14:35 48 37 - 66 - - - 30.14 - 10 OVC022 None
2018-01-21 14:15 48 37 - 66 - - - 30.14 - 10 OVC024 None
2018-01-21 13:55 48 37 - 66 - - - 30.14 - 10 BKN026 OVC060 None
2018-01-21 13:35 48 37 - 66 - - - 30.14 - 10 OVC030 None
2018-01-21 13:15 48 37 - 66 - - - 30.15 - 10 OVC030 None
2018-01-21 12:55 48 37 - 66 - - - 30.16 - 10 OVC032 None
2018-01-21 12:35 48 36 - 61 - - - 30.16 - 10 BKN032 None
2018-01-21 12:15 48 36 - 61 - - - 30.17 - 10 BKN032 None
2018-01-21 11:55 48 36 - 61 - - - 30.18 - 10 BKN030 None
2018-01-21 11:35 46 36 - 65 - - - 30.19 - 10 OVC030 None
2018-01-21 11:15 46 36 - 65 - - - 30.20 - 10 OVC030 None
2018-01-21 10:55 46 36 - 65 - - - 30.21 - 10 BKN030 None
2018-01-21 10:35 45 34 - 65 - - - 30.21 - 10 OVC030 None
2018-01-21 10:15 45 32 - 61 - - - 30.21 - 10 OVC028 None
2018-01-21 09:55 43 32 - 65 - - - 30.21 - 10 OVC028 None
2018-01-21 09:35 39 32 - 75 - - - 30.20 - 10 SCT028 None
2018-01-21 09:15 37 32 - 80 - - - 30.19 - 10 CLR None
2018-01-21 08:55 34 30 - 86 - - - 30.18 - 10 CLR None
2018-01-21 08:35 32 28 - 86 - - - 30.18 - 10 CLR None
2018-01-21 08:15 30 27 - 86 - - - 30.18 - 10 FEW047 None
2018-01-21 07:55 28 27 - 92 - - - 30.17 - 10 SCT045 None
2018-01-21 07:35 28 27 - 92 - - - 30.16 - 10 CLR None
2018-01-21 07:15 28 27 - 92 - - - 30.15 - 10 CLR None
2018-01-21 06:55 30 27 - 86 - - - 30.15 - 10 CLR None
2018-01-21 06:35 30 27 - 86 - - - 30.15 - 10 CLR None
2018-01-21 06:15 32 28 - 86 - - - 30.14 - 10 CLR None
2018-01-21 05:55 34 28 - 80 - - - 30.14 - 10 CLR None
2018-01-21 05:35 32 27 - 80 - - - 30.13 - 10 CLR None
2018-01-21 05:15 32 27 - 80 - - - 30.13 - 10 CLR None
2018-01-21 04:55 37 28 - 69 - - - 30.12 - 10 CLR None
2018-01-21 04:35 37 28 - 69 - - - 30.11 - 10 CLR None
2018-01-21 04:15 36 28 - 74 - - - 30.10 - 10 CLR None
2018-01-21 03:55 34 28 - 80 - - - 30.10 - 10 CLR None
2018-01-21 03:35 36 28 - 74 - - - 30.10 - 10 CLR None
2018-01-21 03:15 37 28 - 69 - - - 30.10 - 10 CLR None
2018-01-21 02:55 36 28 - 74 - - - 30.10 - 10 CLR None
2018-01-21 02:35 37 28 - 69 - - - 30.09 - 10 CLR None
2018-01-21 02:15 39 28 - 64 - - - 30.09 - 10 CLR None
2018-01-21 01:55 39 28 - 64 - - - 30.09 - 10 CLR None
2018-01-21 01:35 32 27 - 80 - - - 30.08 - 10 CLR None
2018-01-21 01:15 32 27 - 80 - - - 30.08 - 10 CLR None
2018-01-21 00:55 32 27 - 80 - - - 30.07 - 10 CLR None
2018-01-21 00:35 32 27 - 80 - - - 30.08 - 10 CLR None
2018-01-21 00:15 36 28 - 74 - - - 30.08 - 10 CLR None
2018-01-20 23:55 39 28 - 64 - - - 30.07 - 10 CLR None
2018-01-20 23:35 41 28 - 60 - - - 30.07 - 10 CLR None
2018-01-20 23:15 43 28 - 56 - - - 30.06 - 10 CLR None
2018-01-20 22:55 45 28 - 52 - - - 30.06 - 10 CLR None
2018-01-20 22:35 45 28 - 52 - - - 30.05 - 10 CLR None
2018-01-20 22:15 45 28 - 52 - - - 30.05 - 10 CLR None
2018-01-20 21:55 45 28 - 52 - - - 30.05 - 10 CLR None
2018-01-20 21:35 43 28 - 56 - - - 30.05 - 10 CLR None
2018-01-20 21:15 45 28 - 52 - - - 30.04 - 10 CLR None
2018-01-20 20:55 45 28 - 52 - - - 30.04 - 10 CLR None
2018-01-20 20:35 45 28 - 52 - - - 30.04 - 10 CLR None
2018-01-20 20:15 45 28 - 52 - - - 30.04 - 10 CLR None
2018-01-20 19:55 45 28 - 52 - - - 30.03 - 10 CLR None
2018-01-20 19:35 41 28 - 60 - - - 30.02 - 10 CLR None
2018-01-20 19:15 41 28 - 60 - - - 30.02 - 10 CLR None
2018-01-20 18:55 43 28 - 56 - - - 30.02 - 10 CLR None
2018-01-20 18:35 43 28 - 56 - - - 30.01 - 10 CLR None
2018-01-20 18:15 45 28 - 52 - - - 30.00 - 10 CLR None
2018-01-20 17:55 45 28 - 52 - - - 29.99 - 10 CLR None
2018-01-20 17:35 45 28 - 52 - - - 29.98 - 10 CLR None
2018-01-20 17:15 45 28 - 52 - - - 29.97 - 10 CLR None
2018-01-20 16:55 46 28 - 49 - - - 29.97 - 10 CLR None
2018-01-20 16:35 46 28 - 49 - - - 29.96 - 10 CLR None
2018-01-20 16:15 48 28 - 45 - - - 29.95 - 10 CLR None
2018-01-20 15:55 48 28 - 45 - - - 29.94 - 10 CLR None

Support USWX by starting your Amazon purchase here.